Time;durP1;ratioP1;P1;durP2;ratioP2;P2;SDS_P1;SDS_P2;PMS_P1;PMS_P2;Temp;Humidity;BMP_temperature;BMP_pressure;BME280_temperature;BME280_humidity;BME280_pressure;Samples;Min_cycle;Max_cycle;Signal;HPM_P1;HPM_P2
2023/04/26 00:00:38;;;;;;;7.90;6.97;;;;;;;9.30;82.71;95532.97;6062483;23;20214;-87
2023/04/26 00:03:48;;;;;;;9.37;6.77;;;;;;;9.30;82.21;95529.59;6070669;23;20197;-86
2023/04/26 00:06:24;;;;;;;7.83;6.87;;;;;;;9.24;82.27;95520.78;6069317;23;20177;-87
2023/04/26 00:09:09;;;;;;;8.13;7.33;;;;;;;9.29;82.34;95513.38;6072325;23;20495;-85
2023/04/26 00:11:57;;;;;;;7.27;6.47;;;;;;;9.29;82.27;95513.38;6072002;23;20246;-86
2023/04/26 00:14:36;;;;;;;7.97;6.73;;;;;;;9.27;82.26;95519.66;6071913;23;20192;-87
2023/04/26 00:23:12;;;;;;;7.97;6.73;;;;;;;9.25;82.46;95524.16;6068088;23;20192;-86
2023/04/26 00:26:00;;;;;;;8.30;7.40;;;;;;;9.24;83.14;95520.78;6071737;23;20398;-86
2023/04/26 00:28:54;;;;;;;7.53;6.57;;;;;;;9.25;83.30;95519.81;6071167;23;20177;-86
2023/04/26 00:31:23;;;;;;;8.27;6.67;;;;;;;9.27;82.55;95517.06;6071668;23;20193;-85
2023/04/26 00:33:59;;;;;;;7.83;6.80;;;;;;;9.29;82.33;95515.94;6071289;23;20204;-85
2023/04/26 00:36:52;;;;;;;8.50;7.60;;;;;;;9.25;83.55;95521.59;6071451;23;20593;-85
2023/04/26 00:39:41;;;;;;;7.50;6.73;;;;;;;9.26;82.01;95518.03;6071315;23;20196;-86
2023/04/26 00:42:28;;;;;;;8.27;6.90;;;;;;;9.25;82.26;95524.94;6065379;23;20266;-87
2023/04/26 00:45:08;;;;;;;7.70;6.63;;;;;;;9.25;81.74;95514.69;6071976;23;20231;-86
2023/04/26 00:53:25;;;;;;;7.40;6.60;;;;;;;9.25;79.88;95521.59;6068928;23;20263;-86
2023/04/26 00:55:51;;;;;;;7.27;6.30;;;;;;;9.23;79.74;95515.84;6072052;23;20204;-86
2023/04/26 00:58:29;;;;;;;7.07;6.37;;;;;;;9.18;79.44;95515.53;6071377;23;20176;-85
2023/04/26 01:00:56;;;;;;;7.70;6.30;;;;;;;9.17;79.67;95525.00;6070649;23;20200;-86
2023/04/26 01:03:29;;;;;;;6.00;5.33;;;;;;;9.14;79.75;95515.06;6068191;23;20177;-86
2023/04/26 01:06:02;;;;;;;6.70;6.00;;;;;;;9.17;79.41;95525.00;6070612;23;20167;-86
2023/04/26 01:08:43;;;;;;;7.40;6.37;;;;;;;9.15;80.20;95528.72;6071368;23;20221;-85
2023/04/26 01:11:16;;;;;;;7.57;6.23;;;;;;;9.17;80.64;95526.78;6070890;23;20211;-87
2023/04/26 01:13:47;;;;;;;7.80;5.73;;;;;;;9.18;80.31;95525.81;6072123;23;20184;-86
2023/04/26 01:16:23;;;;;;;7.07;5.53;;;;;;;9.16;80.53;95527.75;6072452;23;20177;-86
2023/04/26 01:18:53;;;;;;;6.33;5.73;;;;;;;9.14;80.44;95524.56;6073040;23;20164;-86
2023/04/26 01:21:38;;;;;;;;;;;;;;;;;;;;;
2023/04/26 01:24:15;;;;;;;6.10;5.33;;;;;;;9.04;80.54;95529.13;6069142;23;20204;-88
2023/04/26 01:26:57;;;;;;;5.90;5.30;;;;;;;9.06;80.34;95533.09;6071853;23;20169;-88
2023/04/26 01:29:54;;;;;;;6.83;5.43;;;;;;;9.03;80.53;95530.06;6072478;23;20525;-87
2023/04/26 01:32:39;;;;;;;5.97;5.30;;;;;;;8.98;81.33;95538.28;6057039;23;20201;-88
2023/04/26 01:35:19;;;;;;;9.70;6.17;;;;;;;8.96;81.16;95530.75;6071303;23;20177;-86
2023/04/26 01:38:01;;;;;;;7.10;5.70;;;;;;;8.98;81.51;95533.13;6067666;23;20172;-88
2023/04/26 01:40:37;;;;;;;9.23;6.30;;;;;;;8.92;82.44;95536.38;6070777;23;20493;-86
2023/04/26 01:43:14;;;;;;;8.10;6.73;;;;;;;8.78;83.19;95527.59;6068805;23;20177;-86
2023/04/26 01:45:41;;;;;;;7.77;6.17;;;;;;;8.77;83.94;95532.91;6069539;23;20189;-86
2023/04/26 01:48:20;;;;;;;7.23;6.00;;;;;;;8.70;84.01;95543.03;6070690;23;20201;-86
2023/04/26 01:51:04;;;;;;;6.73;6.03;;;;;;;8.74;83.75;95535.81;6069635;23;20172;-86
2023/04/26 01:53:50;;;;;;;6.60;5.60;;;;;;;8.74;82.96;95544.31;6069940;23;20252;-85
2023/04/26 01:56:22;;;;;;;7.30;5.97;;;;;;;8.66;82.75;95544.31;6070235;23;20631;-86
2023/04/26 01:59:10;;;;;;;6.30;4.90;;;;;;;8.64;82.69;95544.50;6069896;23;20162;-86
2023/04/26 02:01:45;;;;;;;6.00;5.33;;;;;;;8.59;82.52;95545.97;6051464;23;20216;-85
2023/04/26 02:04:31;;;;;;;6.33;5.30;;;;;;;8.54;82.76;95551.59;6069091;23;20482;-87
2023/04/26 02:09:49;;;;;;;6.53;4.97;;;;;;;8.62;81.30;95555.91;6052316;23;20172;-86
2023/04/26 02:12:32;;;;;;;7.37;5.20;;;;;;;8.65;81.39;95551.25;6068605;23;20201;-88
2023/04/26 02:15:08;;;;;;;9.50;5.43;;;;;;;8.62;81.51;95543.06;6068405;23;20241;-86
2023/04/26 02:17:36;;;;;;;6.07;4.40;;;;;;;8.61;81.09;95538.91;6068416;23;20271;-85
2023/04/26 02:20:16;;;;;;;5.30;4.30;;;;;;;8.54;80.26;95541.31;6069748;23;20180;-87
2023/04/26 02:22:53;;;;;;;5.53;4.50;;;;;;;8.55;80.33;95547.25;6069251;23;20931;-87
2023/04/26 02:25:39;;;;;;;5.10;4.27;;;;;;;8.56;80.26;95536.03;6069667;23;20173;-85
2023/04/26 02:28:28;;;;;;;5.07;4.43;;;;;;;8.62;79.66;95535.38;6068813;23;20181;-86
2023/04/26 02:31:22;;;;;;;4.67;4.07;;;;;;;8.58;79.96;95532.34;6069446;23;20166;-85
2023/04/26 02:36:48;;;;;;;4.87;4.27;;;;;;;8.41;80.23;95541.03;6067349;23;20181;-86
2023/04/26 02:39:36;;;;;;;5.37;4.17;;;;;;;8.46;80.51;95545.69;6070018;23;20192;-87
2023/04/26 02:42:51;;;;;;;4.93;4.10;;;;;;;8.49;80.96;95540.19;6069041;23;20193;-86
2023/04/26 02:45:28;;;;;;;5.10;4.30;;;;;;;8.44;80.59;95542.47;6069931;23;20162;-87
2023/04/26 02:47:56;;;;;;;6.60;4.73;;;;;;;8.37;79.64;95537.19;6069223;23;20478;-86
2023/04/26 02:50:33;;;;;;;4.40;3.97;;;;;;;8.38;79.88;95540.56;6069252;23;20224;-85
2023/04/26 02:53:02;;;;;;;4.90;4.30;;;;;;;8.43;80.40;95546.00;6067789;23;20212;-87
2023/04/26 02:55:36;;;;;;;4.87;4.10;;;;;;;8.44;79.80;95543.28;6067682;23;20284;-86
2023/04/26 02:58:26;;;;;;;6.17;4.00;;;;;;;8.41;79.24;95548.72;6068523;23;20160;-87
2023/04/26 03:01:13;;;;;;;4.40;3.90;;;;;;;8.34;79.14;95534.94;6057355;23;20184;-85
2023/04/26 03:04:10;;;;;;;5.13;3.83;;;;;;;8.41;79.43;95540.25;6068847;23;20219;-85
2023/04/26 03:06:57;;;;;;;4.90;4.10;;;;;;;8.36;79.08;95533.03;6069664;23;20260;-86
2023/04/26 03:09:30;;;;;;;6.27;4.17;;;;;;;8.38;79.21;95538.00;6069899;23;20219;-86
2023/04/26 03:12:08;;;;;;;5.57;4.50;;;;;;;8.36;79.32;95540.72;6070067;23;20687;-85
2023/04/26 03:14:42;;;;;;;5.40;4.53;;;;;;;8.36;79.19;95547.63;6070142;23;20181;-85
2023/04/26 03:17:16;;;;;;;5.00;4.37;;;;;;;8.38;79.53;95546.50;6070249;23;20208;-85
2023/04/26 03:19:50;;;;;;;5.30;4.13;;;;;;;8.41;79.22;95548.72;6071090;23;20205;-85
2023/04/26 03:22:23;;;;;;;4.77;4.03;;;;;;;8.46;79.15;95543.91;6069837;23;20269;-85
2023/04/26 03:25:25;;;;;;;6.60;4.10;;;;;;;8.45;79.27;95537.19;6070492;23;20225;-86
2023/04/26 03:28:21;;;;;;;6.17;4.37;;;;;;;8.43;79.18;95543.44;6069924;23;20185;-85
2023/04/26 03:31:03;;;;;;;7.10;4.87;;;;;;;8.38;79.51;95548.25;6068852;23;20174;-86
2023/04/26 03:33:36;;;;;;;5.43;4.50;;;;;;;8.37;79.16;95547.44;6069865;23;20209;-86
2023/04/26 03:36:13;;;;;;;6.63;4.50;;;;;;;8.29;79.68;95543.09;6069948;23;20236;-86
2023/04/26 03:38:45;;;;;;;5.10;4.60;;;;;;;8.32;79.52;95547.94;6070642;23;20676;-86
2023/04/26 03:41:19;;;;;;;7.43;4.60;;;;;;;8.39;79.28;95547.28;6069431;23;20200;-87
2023/04/26 03:43:50;;;;;;;5.23;4.73;;;;;;;8.41;79.14;95551.31;6069942;23;20177;-85
2023/04/26 03:46:23;;;;;;;6.73;4.93;;;;;;;8.44;79.42;95548.41;6069436;23;20176;-86
2023/04/26 03:48:52;;;;;;;5.47;4.90;;;;;;;8.42;79.56;95549.53;6068731;23;20201;-86
2023/04/26 03:51:30;;;;;;;6.83;4.70;;;;;;;8.41;79.62;95556.44;6069886;23;20260;-86
2023/04/26 03:54:06;;;;;;;5.60;5.10;;;;;;;8.37;79.82;95550.03;6070579;23;20177;-86
2023/04/26 03:56:45;;;;;;;6.60;5.20;;;;;;;8.28;79.61;95553.50;6070029;23;20176;-86
2023/04/26 03:59:24;;;;;;;6.00;4.90;;;;;;;8.27;80.26;95560.41;6068518;23;20597;-87
2023/04/26 04:02:35;;;;;;;5.57;4.90;;;;;;;8.24;79.82;95557.41;6068274;23;20204;-87
2023/04/26 04:07:59;;;;;;;8.80;5.53;;;;;;;8.24;80.47;95557.41;6069884;23;20248;-86
2023/04/26 04:10:30;;;;;;;6.20;4.90;;;;;;;8.09;80.40;95556.44;6070330;23;20176;-85
2023/04/26 04:12:56;;;;;;;6.30;4.63;;;;;;;8.12;80.94;95556.91;6069110;23;20193;-86
2023/04/26 04:18:25;;;;;;;7.37;5.27;;;;;;;8.20;80.63;95556.91;6069238;23;20229;-86
2023/04/26 04:21:20;;;;;;;7.63;5.27;;;;;;;8.24;80.65;95562.53;6067843;23;20184;-85
2023/04/26 04:23:55;;;;;;;5.90;5.00;;;;;;;8.28;80.38;95563.78;6007178;23;20173;-85
2023/04/26 04:27:02;;;;;;;7.10;5.30;;;;;;;8.30;80.25;95560.09;6069472;23;20176;-85
2023/04/26 04:29:41;;;;;;;7.43;5.20;;;;;;;8.31;79.84;95569.38;6070149;23;20167;-85
2023/04/26 04:32:32;;;;;;;6.60;5.33;;;;;;;8.35;80.09;95571.66;6070208;23;20197;-85
2023/04/26 04:35:09;;;;;;;6.77;5.23;;;;;;;8.37;80.02;95585.13;6070031;23;20537;-85
2023/04/26 04:37:49;;;;;;;6.73;5.57;;;;;;;8.35;80.53;95582.72;6068463;23;20196;-86
2023/04/26 04:43:22;;;;;;;12.20;6.27;;;;;;;8.36;80.55;95584.34;6072194;23;20288;-86
2023/04/26 04:45:57;;;;;;;6.97;5.57;;;;;;;8.39;80.66;95590.91;6072527;23;20165;-87
2023/04/26 04:51:55;;;;;;;6.97;5.77;;;;;;;8.41;80.50;95591.53;6069064;23;20271;-86
2023/04/26 04:54:40;;;;;;;7.83;5.83;;;;;;;8.35;80.23;95594.75;6068181;23;20215;-85
2023/04/26 04:57:36;;;;;;;6.83;5.27;;;;;;;8.42;79.84;95591.38;6068675;23;20193;-87
2023/04/26 05:00:27;;;;;;;6.23;5.23;;;;;;;8.40;80.24;95600.22;6026890;23;20181;-88
2023/04/26 05:06:27;;;;;;;7.90;5.47;;;;;;;8.41;81.61;95610.31;6069904;23;20185;-86
2023/04/26 05:09:37;;;;;;;8.40;5.87;;;;;;;8.41;81.98;95618.00;6071608;23;20209;-87
2023/04/26 05:12:14;;;;;;;18.63;15.53;;;;;;;8.41;82.03;95612.06;6044058;23;20200;-87
2023/04/26 05:14:45;;;;;;;13.23;10.43;;;;;;;8.41;84.03;95615.44;6070862;23;20181;-86
2023/04/26 05:26:36;;;;;;;;;;;;;;;;;;;;;
2023/04/26 05:29:40;;;;;;;7.87;5.60;;;;;;;8.44;81.58;95612.56;5980744;24;20705;-87
2023/04/26 05:37:43;;;;;;;7.10;5.50;;;;;;;8.45;79.15;95623.63;6056535;23;20890;-88
2023/04/26 05:40:16;;;;;;;7.40;5.63;;;;;;;8.39;79.42;95622.50;6065438;23;20212;-86
2023/04/26 05:53:16;;;;;;;6.33;5.70;;;;;;;8.64;80.21;95624.06;5842336;24;20279;-87
2023/04/26 05:55:59;;;;;;;6.73;5.90;;;;;;;8.72;80.82;95625.81;5842984;24;20266;-87
2023/04/26 05:58:26;;;;;;;8.37;6.47;;;;;;;8.81;79.73;95626.59;5818762;24;20187;-86
2023/04/26 06:00:56;;;;;;;9.13;6.50;;;;;;;8.82;80.49;95630.78;5852124;24;20181;-88
2023/04/26 06:03:23;;;;;;;6.53;5.83;;;;;;;8.71;79.35;95629.34;5994877;23;20184;-86
2023/04/26 06:06:22;;;;;;;7.73;6.60;;;;;;;8.60;79.84;95635.63;6068648;23;20177;-86
2023/04/26 06:12:46;;;;;;;7.37;5.90;;;;;;;8.59;79.89;95643.47;5816121;24;20207;-86
2023/04/26 06:18:44;;;;;;;9.30;7.40;;;;;;;8.68;78.83;95652.75;5895222;24;20209;-87
2023/04/26 06:21:42;;;;;;;;;;;;;;;;;;;;;
2023/04/26 06:28:22;;;;;;;;;;;;;;;;;;;;;
2023/04/26 06:34:59;;;;;;;6.60;5.93;;;;;;;9.05;78.00;95634.22;5714250;25;20241;-86
2023/04/26 06:38:00;;;;;;;7.63;5.90;;;;;;;9.09;77.15;95642.38;5664815;25;20183;-87
2023/04/26 06:41:26;;;;;;;7.13;6.40;;;;;;;9.18;79.27;95649.91;5832393;24;20183;-87
2023/04/26 06:47:32;;;;;;;7.23;5.83;;;;;;;9.46;74.24;95647.69;5863306;24;20188;-87
2023/04/26 06:56:28;;;;;;;8.50;6.30;;;;;;;9.48;73.64;95652.69;5895528;24;20209;-85
2023/04/26 06:59:12;;;;;;;7.00;6.20;;;;;;;9.59;73.90;95654.88;5898334;24;20673;-84
2023/04/26 07:36:31;;;;;;;7.70;5.93;;;;;;;9.79;70.88;95645.78;6093067;23;20296;-86
2023/04/26 07:40:04;;;;;;;7.83;6.13;;;;;;;9.87;70.43;95643.13;6096012;23;20180;-86
2023/04/26 07:43:16;;;;;;;7.50;5.67;;;;;;;9.90;72.64;95645.38;5906430;23;20204;-87
2023/04/26 07:53:33;;;;;;;;;;;;;;;;;;;;;
2023/04/26 08:09:12;;;;;;;;;;;;;;;;;;;;;
2023/04/26 08:15:21;;;;;;;9.00;6.20;;;;;;;9.99;67.52;95649.50;5889923;23;20214;-85
2023/04/26 08:32:32;;;;;;;7.87;6.07;;;;;;;11.21;63.97;95647.63;5733278;24;20941;-86
2023/04/26 08:55:38;;;;;;;6.20;3.70;;;;;;;11.45;57.26;95642.19;6082564;23;20200;-86
2023/04/26 08:58:58;;;;;;;7.40;4.67;;;;;;;11.43;59.17;95639.78;6096344;23;20165;-87
2023/04/26 09:02:16;;;;;;;8.67;4.20;;;;;;;11.47;59.32;95631.69;5972716;23;20807;-86
2023/04/26 09:05:42;;;;;;;11.80;7.30;;;;;;;11.33;58.29;95641.84;5992311;23;20200;-87
2023/04/26 09:18:53;;;;;;;;;;;;;;;;;;;;;
2023/04/26 10:00:04;;;;;;;;;;;;;;;;;;;;;
2023/04/26 10:03:00;;;;;;;4.20;3.00;;;;;;;11.47;52.82;95645.38;5064928;28;20235;-85
2023/04/26 10:09:43;;;;;;;;;;;;;;;;;;;;;
2023/04/26 10:16:20;;;;;;;8.70;3.70;;;;;;;11.92;51.82;95623.69;5024472;28;20670;-86
2023/04/26 10:25:18;;;;;;;6.27;3.40;;;;;;;14.03;49.35;95609.44;5108018;28;20285;-86
2023/04/26 10:35:56;;;;;;;;;;;;;;;;;;;;;
2023/04/26 16:42:47;;;;;;;2.53;2.20;;;;;;;13.81;46.78;95476.00;4789889;30;20312;-85
2023/04/26 16:45:23;;;;;;;3.72;2.60;;;;;;;13.81;46.46;95470.81;4840032;29;20697;-85
2023/04/26 16:47:59;;;;;;;3.00;2.22;;;;;;;13.85;46.61;95474.63;4902723;29;20422;-88
2023/04/26 16:51:03;;;;;;;4.40;3.08;;;;;;;13.82;45.95;95473.22;4988096;28;20199;-85
2023/04/26 17:13:18;;;;;;;7.27;3.50;;;;;;;13.60;47.32;95489.13;5015613;28;20222;-85
2023/04/26 17:26:20;;;;;;;4.93;3.23;;;;;;;13.30;47.74;95499.00;4988934;28;20223;-85
2023/04/26 17:35:22;;;;;;;5.03;3.20;;;;;;;13.33;47.93;95501.19;4951353;28;20209;-85
2023/04/26 17:38:01;;;;;;;3.47;2.70;;;;;;;13.35;48.16;95509.56;5020402;28;20281;-85
2023/04/26 17:46:54;;;;;;;6.10;2.70;;;;;;;13.19;48.84;95515.88;5035518;28;20202;-87
2023/04/26 17:49:31;;;;;;;3.37;2.20;;;;;;;13.13;48.23;95517.41;5052320;28;20198;-85
2023/04/26 17:58:39;;;;;;;4.90;2.70;;;;;;;13.10;48.21;95528.13;4985962;28;20786;-85
2023/04/26 18:01:52;;;;;;;;;;;;;;;;;;;;;
2023/04/26 18:07:46;;;;;;;;;;;;;;;;;;;;;
2023/04/26 18:19:52;;;;;;;3.50;2.53;;;;;;;12.75;48.55;95536.94;4974303;28;20200;-86
2023/04/26 18:23:40;;;;;;;6.07;2.50;;;;;;;12.76;48.77;95543.69;4968538;28;20417;-86
2023/04/26 18:30:12;;;;;;;4.97;3.30;;;;;;;12.68;49.61;95551.59;4983750;28;20446;-87
2023/04/26 18:33:16;;;;;;;6.40;3.70;;;;;;;12.69;50.71;95561.75;5005948;28;20250;-85
2023/04/26 18:42:39;;;;;;;3.77;2.40;;;;;;;12.55;49.36;95570.38;5017632;28;20253;-86
2023/04/26 18:48:22;;;;;;;3.93;2.60;;;;;;;12.48;49.63;95564.41;5018733;28;20194;-87
2023/04/26 18:51:23;;;;;;;3.47;2.70;;;;;;;12.43;49.93;95567.53;5062437;28;20193;-86
2023/04/26 18:53:55;;;;;;;4.13;2.87;;;;;;;12.42;49.77;95572.88;5062803;28;20323;-84
2023/04/26 18:56:41;;;;;;;3.67;2.87;;;;;;;12.37;50.09;95570.06;5068946;28;20205;-85
2023/04/26 19:00:10;;;;;;;3.83;3.13;;;;;;;12.19;50.10;95578.25;5078579;28;20200;-85
2023/04/26 19:03:08;;;;;;;5.20;3.17;;;;;;;12.18;50.66;95587.00;5073497;22;20305;-86
2023/04/26 19:06:03;;;;;;;3.10;2.80;;;;;;;12.10;50.97;95594.88;5039095;28;20862;-85
2023/04/26 19:12:09;;;;;;;4.80;3.03;;;;;;;11.99;51.61;95585.03;5025445;28;20253;-85
2023/04/26 19:15:50;;;;;;;;;;;;;;;;;;;;;
2023/04/26 19:19:10;;;;;;;;;;;;;;;;;;;;;
2023/04/26 19:31:34;;;;;;;3.97;3.00;;;;;;;12.00;52.52;95596.97;4925389;28;20268;-86
2023/04/26 19:34:35;;;;;;;4.97;3.23;;;;;;;11.97;52.58;95603.28;4957737;29;20293;-86
2023/04/26 19:37:51;;;;;;;6.73;3.20;;;;;;;11.83;53.21;95591.25;4993972;28;20202;-87
2023/04/26 19:40:31;;;;;;;4.33;3.60;;;;;;;11.67;53.35;95588.88;4999053;28;20692;-86
2023/04/26 19:43:36;;;;;;;;;;;;;;;;;;;;;
2023/04/26 19:46:53;;;;;;;4.90;3.50;;;;;;;11.61;52.83;95599.91;5018065;28;20222;-85
2023/04/26 20:02:19;;;;;;;7.20;3.60;;;;;;;11.56;54.26;95612.53;4967839;28;20259;-86
2023/04/26 20:05:02;;;;;;;5.03;3.67;;;;;;;11.54;53.47;95614.53;5016445;28;20210;-86
2023/04/26 20:08:00;;;;;;;5.13;3.50;;;;;;;11.55;52.78;95610.94;5014935;28;20234;-87
2023/04/26 20:11:04;;;;;;;5.87;4.13;;;;;;;11.53;53.00;95610.34;5006428;28;20261;-88
2023/04/26 20:16:44;;;;;;;6.40;3.60;;;;;;;11.45;53.52;95610.44;5012672;28;20199;-86
2023/04/26 20:19:58;;;;;;;;;;;;;;;;;;;;;
2023/04/26 20:22:25;;;;;;;4.70;3.83;;;;;;;11.38;55.32;95611.16;5005994;28;20233;-88
2023/04/26 20:31:27;;;;;;;;;;;;;;;;;;;;;
2023/04/26 20:34:07;;;;;;;6.17;4.50;;;;;;;11.34;54.88;95611.72;5012293;28;20254;-86
2023/04/26 20:36:34;;;;;;;6.00;4.27;;;;;;;11.38;54.95;95615.50;5015804;28;20202;-87
2023/04/26 20:39:00;;;;;;;7.07;5.10;;;;;;;11.41;55.33;95610.81;5015722;28;20222;-87
2023/04/26 20:41:35;;;;;;;6.87;4.80;;;;;;;11.47;54.75;95622.19;5039072;28;20268;-87
2023/04/26 20:44:26;;;;;;;7.97;5.40;;;;;;;11.48;56.08;95628.94;5034684;28;20186;-87
2023/04/26 20:50:18;;;;;;;9.17;6.70;;;;;;;11.59;54.56;95625.88;5022640;28;20206;-87
2023/04/26 20:53:03;;;;;;;6.80;4.97;;;;;;;11.61;54.47;95618.75;5029067;28;20271;-87
2023/04/26 20:55:41;;;;;;;10.70;5.17;;;;;;;11.65;54.17;95619.22;5035922;28;20588;-87
2023/04/26 21:01:10;;;;;;;6.77;4.57;;;;;;;11.57;54.28;95629.63;5028031;28;20209;-86
2023/04/26 21:07:01;;;;;;;6.87;5.03;;;;;;;11.48;55.66;95628.13;5031403;28;20233;-87
2023/04/26 21:12:31;;;;;;;4.93;3.87;;;;;;;11.52;57.01;95626.81;5039293;28;20222;-87
2023/04/26 21:15:22;;;;;;;8.00;4.67;;;;;;;11.56;57.13;95622.84;5017074;28;20209;-86
2023/04/26 21:17:56;;;;;;;8.00;4.30;;;;;;;11.55;56.74;95616.91;5033135;28;20186;-86
2023/04/26 21:20:43;;;;;;;7.53;4.77;;;;;;;11.53;57.19;95618.88;5033610;28;20194;-86
2023/04/26 21:26:24;;;;;;;7.80;4.70;;;;;;;11.42;56.66;95630.44;4990725;28;20223;-86
2023/04/26 21:29:03;;;;;;;9.27;5.40;;;;;;;11.42;55.79;95619.34;5033173;28;20194;-87
2023/04/26 21:32:02;;;;;;;9.00;6.57;;;;;;;11.45;54.86;95623.34;5034235;28;20236;-86
2023/04/26 21:34:41;;;;;;;7.87;5.20;;;;;;;11.45;54.87;95623.34;5029215;28;20285;-86
2023/04/26 21:37:15;;;;;;;10.53;6.00;;;;;;;11.46;55.61;95623.16;5033879;28;20205;-86
2023/04/26 21:40:06;;;;;;;5.17;3.87;;;;;;;11.47;56.01;95616.22;5035392;28;20205;-87
2023/04/26 21:43:10;;;;;;;6.13;4.27;;;;;;;11.46;56.20;95623.16;5033765;28;20224;-86
2023/04/26 21:45:49;;;;;;;5.73;4.37;;;;;;;11.40;53.81;95629.03;5034125;28;20695;-86
2023/04/26 21:48:30;;;;;;;6.50;4.40;;;;;;;11.27;52.80;95631.44;5034530;28;20202;-86
2023/04/26 21:51:21;;;;;;;8.53;5.03;;;;;;;11.07;53.26;95633.78;5035290;28;20213;-86
2023/04/26 21:54:26;;;;;;;6.13;4.60;;;;;;;11.02;53.81;95641.22;5035180;28;20252;-86
2023/04/26 21:59:50;;;;;;;5.83;4.80;;;;;;;11.05;54.02;95640.88;5030596;28;20204;-86
2023/04/26 22:02:27;;;;;;;;;;;;;;;;;;;;;
2023/04/26 22:08:10;;;;;;;8.30;5.10;;;;;;;11.15;53.72;95638.03;5037978;28;20198;-87
2023/04/26 22:10:52;;;;;;;10.50;6.70;;;;;;;11.18;53.72;95638.47;5035452;28;20201;-89
2023/04/26 22:13:48;;;;;;;11.67;6.70;;;;;;;11.23;53.81;95630.22;5036989;28;20214;-86
2023/04/26 22:16:31;;;;;;;7.37;5.80;;;;;;;11.19;54.30;95640.06;5032469;28;20822;-87
2023/04/26 22:19:19;;;;;;;10.07;6.90;;;;;;;11.26;54.39;95635.00;5028497;28;20206;-86
2023/04/26 22:22:08;;;;;;;7.27;4.67;;;;;;;11.26;54.52;95638.38;5028996;28;20217;-86
2023/04/26 22:24:42;;;;;;;5.30;4.77;;;;;;;11.34;54.91;95638.31;5035936;28;20581;-86
2023/04/26 22:27:19;;;;;;;4.97;3.93;;;;;;;11.30;55.35;95624.16;5035561;28;20751;-87
2023/04/26 22:33:43;;;;;;;12.00;10.37;;;;;;;11.27;56.58;95637.41;5037697;28;20666;-88
2023/04/26 22:36:17;;;;;;;6.30;4.90;;;;;;;11.22;56.91;95634.56;5036894;28;20715;-87
2023/04/26 22:45:35;;;;;;;7.97;4.20;;;;;;;11.17;55.09;95642.03;5033691;28;20203;-86
2023/04/26 22:48:21;;;;;;;4.23;3.80;;;;;;;11.19;54.68;95636.69;5035412;28;20764;-86
2023/04/26 22:50:59;;;;;;;7.63;4.73;;;;;;;11.03;54.34;95641.06;5034883;28;20194;-86
2023/04/26 22:53:34;;;;;;;5.27;4.10;;;;;;;11.04;54.47;95647.00;5033315;28;20225;-87
2023/04/26 22:56:31;;;;;;;8.53;4.30;;;;;;;11.09;54.72;95649.84;5038418;28;20194;-87
2023/04/26 22:59:23;;;;;;;6.13;4.17;;;;;;;11.12;55.25;95648.72;5034704;28;20195;-87
2023/04/26 23:02:13;;;;;;;8.47;4.03;;;;;;;11.10;54.74;95643.72;5033595;28;20218;-87
2023/04/26 23:05:08;;;;;;;7.57;4.90;;;;;;;11.07;55.05;95649.22;5034942;28;20210;-86
2023/04/26 23:14:19;;;;;;;5.53;4.00;;;;;;;11.17;55.98;95642.03;5039428;28;20212;-87
2023/04/26 23:17:10;;;;;;;5.60;4.10;;;;;;;11.17;56.41;95647.19;5039430;28;20192;-86
2023/04/26 23:20:01;;;;;;;8.53;4.13;;;;;;;11.18;56.26;95653.13;5038321;28;20202;-86
2023/04/26 23:22:34;;;;;;;7.93;4.50;;;;;;;11.11;57.40;95644.53;5038523;28;20464;-85
2023/04/26 23:25:40;;;;;;;;;;;;;;;;;;;;;
2023/04/26 23:28:39;;;;;;;9.10;3.90;;;;;;;11.11;58.02;95641.94;5033358;28;20804;-88
2023/04/26 23:34:41;;;;;;;5.90;4.03;;;;;;;11.07;55.96;95641.50;5034930;28;20210;-86
2023/04/26 23:37:37;;;;;;;4.43;3.93;;;;;;;11.06;55.63;95639.91;5035859;28;20202;-86
2023/04/26 23:40:10;;;;;;;9.80;4.23;;;;;;;11.10;55.46;95645.50;5036181;28;20630;-86
2023/04/26 23:43:11;;;;;;;;;;;;;;;;;;;;;
2023/04/26 23:46:03;;;;;;;5.10;4.20;;;;;;;11.00;54.99;95643.97;5035844;28;20257;-87
2023/04/26 23:49:00;;;;;;;5.17;3.87;;;;;;;11.01;54.78;95640.44;5019108;28;20656;-87
2023/04/26 23:52:01;;;;;;;7.50;3.87;;;;;;;10.98;54.26;95637.41;5029892;28;20228;-86
2023/04/26 23:54:47;;;;;;;6.97;4.63;;;;;;;10.98;54.83;95633.03;5027144;28;20238;-87
